sensor_id;sensor_type;location;lat;lon;timestamp;temperature;humidity
13817;DHT22;6979;52.116;5.286;2023-03-14T00:00:26;14.70;99.90
13817;DHT22;6979;52.116;5.286;2023-03-14T00:02:53;14.60;99.90
13817;DHT22;6979;52.116;5.286;2023-03-14T00:05:20;14.60;99.90
13817;DHT22;6979;52.116;5.286;2023-03-14T00:07:47;14.60;99.90
13817;DHT22;6979;52.116;5.286;2023-03-14T00:10:14;14.50;99.90
13817;DHT22;6979;52.116;5.286;2023-03-14T00:12:42;14.50;99.90
13817;DHT22;6979;52.116;5.286;2023-03-14T00:15:09;14.40;99.90
13817;DHT22;6979;52.116;5.286;2023-03-14T00:17:38;14.40;99.90
13817;DHT22;6979;52.116;5.286;2023-03-14T00:20:07;14.40;99.90
13817;DHT22;6979;52.116;5.286;2023-03-14T00:22:38;14.40;99.90
13817;DHT22;6979;52.116;5.286;2023-03-14T00:25:07;14.50;99.90
13817;DHT22;6979;52.116;5.286;2023-03-14T00:27:35;14.40;99.90
13817;DHT22;6979;52.116;5.286;2023-03-14T00:30:02;14.40;99.90
13817;DHT22;6979;52.116;5.286;2023-03-14T00:32:29;14.50;99.90
13817;DHT22;6979;52.116;5.286;2023-03-14T00:34:57;14.40;99.90
13817;DHT22;6979;52.116;5.286;2023-03-14T00:37:26;14.40;99.90
13817;DHT22;6979;52.116;5.286;2023-03-14T00:39:53;14.40;99.90
13817;DHT22;6979;52.116;5.286;2023-03-14T00:42:20;14.40;99.90
13817;DHT22;6979;52.116;5.286;2023-03-14T00:44:47;14.40;99.90
13817;DHT22;6979;52.116;5.286;2023-03-14T00:47:13;14.40;99.90
13817;DHT22;6979;52.116;5.286;2023-03-14T00:49:42;14.40;99.90
13817;DHT22;6979;52.116;5.286;2023-03-14T00:52:10;14.40;99.90
13817;DHT22;6979;52.116;5.286;2023-03-14T00:54:37;14.40;99.90
13817;DHT22;6979;52.116;5.286;2023-03-14T00:57:04;14.40;99.90
13817;DHT22;6979;52.116;5.286;2023-03-14T00:59:30;14.40;99.90
13817;DHT22;6979;52.116;5.286;2023-03-14T01:01:57;14.40;99.90
13817;DHT22;6979;52.116;5.286;2023-03-14T01:04:24;14.40;99.90
13817;DHT22;6979;52.116;5.286;2023-03-14T01:06:54;14.30;99.90
13817;DHT22;6979;52.116;5.286;2023-03-14T01:09:22;14.30;99.90
13817;DHT22;6979;52.116;5.286;2023-03-14T01:11:49;14.30;99.90
13817;DHT22;6979;52.116;5.286;2023-03-14T01:14:16;14.30;99.90
13817;DHT22;6979;52.116;5.286;2023-03-14T01:16:43;14.20;99.90
13817;DHT22;6979;52.116;5.286;2023-03-14T01:19:10;14.20;99.90
13817;DHT22;6979;52.116;5.286;2023-03-14T01:21:37;14.10;99.90
13817;DHT22;6979;52.116;5.286;2023-03-14T01:24:06;14.10;99.90
13817;DHT22;6979;52.116;5.286;2023-03-14T01:26:35;14.00;99.90
13817;DHT22;6979;52.116;5.286;2023-03-14T01:29:03;14.00;99.90
13817;DHT22;6979;52.116;5.286;2023-03-14T01:31:32;13.90;99.90
13817;DHT22;6979;52.116;5.286;2023-03-14T01:33:59;13.90;99.90
13817;DHT22;6979;52.116;5.286;2023-03-14T01:36:26;13.80;99.90
13817;DHT22;6979;52.116;5.286;2023-03-14T01:38:53;13.70;99.90
13817;DHT22;6979;52.116;5.286;2023-03-14T01:41:24;13.70;99.90
13817;DHT22;6979;52.116;5.286;2023-03-14T01:43:54;13.60;99.90
13817;DHT22;6979;52.116;5.286;2023-03-14T01:46:25;13.60;99.90
13817;DHT22;6979;52.116;5.286;2023-03-14T01:49:01;13.60;99.90
13817;DHT22;6979;52.116;5.286;2023-03-14T01:51:36;13.60;99.90
13817;DHT22;6979;52.116;5.286;2023-03-14T01:54:08;13.60;99.90
13817;DHT22;6979;52.116;5.286;2023-03-14T01:56:38;13.60;99.90
13817;DHT22;6979;52.116;5.286;2023-03-14T01:59:08;13.50;99.90
13817;DHT22;6979;52.116;5.286;2023-03-14T02:01:36;13.50;99.90
13817;DHT22;6979;52.116;5.286;2023-03-14T02:04:05;13.60;99.90
13817;DHT22;6979;52.116;5.286;2023-03-14T02:06:41;13.60;99.90
13817;DHT22;6979;52.116;5.286;2023-03-14T02:09:11;13.60;99.90
13817;DHT22;6979;52.116;5.286;2023-03-14T02:11:38;13.60;99.90
13817;DHT22;6979;52.116;5.286;2023-03-14T02:14:22;13.60;99.90
13817;DHT22;6979;52.116;5.286;2023-03-14T02:17:12;13.60;99.90
13817;DHT22;6979;52.116;5.286;2023-03-14T02:20:21;13.60;99.90
13817;DHT22;6979;52.116;5.286;2023-03-14T02:22:56;13.60;99.90
13817;DHT22;6979;52.116;5.286;2023-03-14T02:25:32;13.60;99.90
13817;DHT22;6979;52.116;5.286;2023-03-14T02:28:02;13.60;99.90
13817;DHT22;6979;52.116;5.286;2023-03-14T02:30:30;13.60;99.90
13817;DHT22;6979;52.116;5.286;2023-03-14T02:33:01;13.70;99.90
13817;DHT22;6979;52.116;5.286;2023-03-14T02:35:33;13.70;99.90
13817;DHT22;6979;52.116;5.286;2023-03-14T02:38:05;13.70;99.90
13817;DHT22;6979;52.116;5.286;2023-03-14T02:40:37;13.70;99.90
13817;DHT22;6979;52.116;5.286;2023-03-14T02:43:05;13.70;99.90
13817;DHT22;6979;52.116;5.286;2023-03-14T02:45:40;13.70;99.90
13817;DHT22;6979;52.116;5.286;2023-03-14T02:48:13;13.70;99.90
13817;DHT22;6979;52.116;5.286;2023-03-14T02:50:41;13.70;99.90
13817;DHT22;6979;52.116;5.286;2023-03-14T02:53:08;13.70;99.90
13817;DHT22;6979;52.116;5.286;2023-03-14T02:55:35;13.70;99.90
13817;DHT22;6979;52.116;5.286;2023-03-14T02:58:10;13.80;99.90
13817;DHT22;6979;52.116;5.286;2023-03-14T03:00:37;13.80;99.90
13817;DHT22;6979;52.116;5.286;2023-03-14T03:03:06;13.70;99.90
13817;DHT22;6979;52.116;5.286;2023-03-14T03:05:33;13.70;99.90
13817;DHT22;6979;52.116;5.286;2023-03-14T03:08:01;13.80;99.90
13817;DHT22;6979;52.116;5.286;2023-03-14T03:10:29;13.80;99.90
13817;DHT22;6979;52.116;5.286;2023-03-14T03:12:56;13.80;99.90
13817;DHT22;6979;52.116;5.286;2023-03-14T03:15:27;13.80;99.90
13817;DHT22;6979;52.116;5.286;2023-03-14T03:17:54;13.70;99.90
13817;DHT22;6979;52.116;5.286;2023-03-14T03:20:21;13.70;99.90
13817;DHT22;6979;52.116;5.286;2023-03-14T03:22:47;13.70;99.90
13817;DHT22;6979;52.116;5.286;2023-03-14T03:25:15;13.70;99.90
13817;DHT22;6979;52.116;5.286;2023-03-14T03:27:45;13.70;99.90
13817;DHT22;6979;52.116;5.286;2023-03-14T03:30:14;13.60;99.90
13817;DHT22;6979;52.116;5.286;2023-03-14T03:32:42;13.60;99.90
13817;DHT22;6979;52.116;5.286;2023-03-14T03:35:11;13.60;99.90
13817;DHT22;6979;52.116;5.286;2023-03-14T03:37:38;13.50;99.90
13817;DHT22;6979;52.116;5.286;2023-03-14T03:40:07;13.60;99.90
13817;DHT22;6979;52.116;5.286;2023-03-14T03:42:35;13.50;99.90
13817;DHT22;6979;52.116;5.286;2023-03-14T03:45:05;13.50;99.90
13817;DHT22;6979;52.116;5.286;2023-03-14T03:47:35;13.50;99.90
13817;DHT22;6979;52.116;5.286;2023-03-14T03:50:05;13.50;99.90
13817;DHT22;6979;52.116;5.286;2023-03-14T03:52:32;13.60;99.90
13817;DHT22;6979;52.116;5.286;2023-03-14T03:54:58;13.50;99.90
13817;DHT22;6979;52.116;5.286;2023-03-14T03:57:27;13.60;99.90
13817;DHT22;6979;52.116;5.286;2023-03-14T03:59:55;13.60;99.90
13817;DHT22;6979;52.116;5.286;2023-03-14T04:02:22;13.60;99.90
13817;DHT22;6979;52.116;5.286;2023-03-14T04:04:50;13.60;99.90
13817;DHT22;6979;52.116;5.286;2023-03-14T04:07:19;13.60;99.90
13817;DHT22;6979;52.116;5.286;2023-03-14T04:09:46;13.70;99.90
13817;DHT22;6979;52.116;5.286;2023-03-14T04:12:31;13.70;99.90
13817;DHT22;6979;52.116;5.286;2023-03-14T04:15:11;13.70;99.90
13817;DHT22;6979;52.116;5.286;2023-03-14T04:17:43;13.70;99.90
13817;DHT22;6979;52.116;5.286;2023-03-14T04:20:13;13.80;99.90
13817;DHT22;6979;52.116;5.286;2023-03-14T04:22:41;13.80;99.90
13817;DHT22;6979;52.116;5.286;2023-03-14T04:25:09;13.80;99.90
13817;DHT22;6979;52.116;5.286;2023-03-14T04:27:40;13.80;99.90
13817;DHT22;6979;52.116;5.286;2023-03-14T04:30:16;13.80;99.90
13817;DHT22;6979;52.116;5.286;2023-03-14T04:32:51;13.90;99.90
13817;DHT22;6979;52.116;5.286;2023-03-14T04:35:19;13.90;99.90
13817;DHT22;6979;52.116;5.286;2023-03-14T04:37:47;13.90;99.90
13817;DHT22;6979;52.116;5.286;2023-03-14T04:40:16;14.00;99.90
13817;DHT22;6979;52.116;5.286;2023-03-14T04:42:43;14.00;99.90
13817;DHT22;6979;52.116;5.286;2023-03-14T04:45:10;14.00;99.90
13817;DHT22;6979;52.116;5.286;2023-03-14T04:47:39;14.00;99.90
13817;DHT22;6979;52.116;5.286;2023-03-14T04:50:09;14.10;99.90
13817;DHT22;6979;52.116;5.286;2023-03-14T04:52:36;14.10;99.90
13817;DHT22;6979;52.116;5.286;2023-03-14T04:55:05;14.10;99.90
13817;DHT22;6979;52.116;5.286;2023-03-14T04:57:32;14.10;99.90
13817;DHT22;6979;52.116;5.286;2023-03-14T05:00:00;14.20;99.90
13817;DHT22;6979;52.116;5.286;2023-03-14T05:02:46;14.20;99.90
13817;DHT22;6979;52.116;5.286;2023-03-14T05:05:33;14.20;99.90
13817;DHT22;6979;52.116;5.286;2023-03-14T05:08:08;14.20;99.90
13817;DHT22;6979;52.116;5.286;2023-03-14T05:10:43;14.10;99.90
13817;DHT22;6979;52.116;5.286;2023-03-14T05:13:30;14.10;99.90
13817;DHT22;6979;52.116;5.286;2023-03-14T05:16:20;14.10;99.90
13817;DHT22;6979;52.116;5.286;2023-03-14T05:19:02;14.00;99.90
13817;DHT22;6979;52.116;5.286;2023-03-14T05:21:48;13.90;99.90
13817;DHT22;6979;52.116;5.286;2023-03-14T05:24:34;13.80;99.90
13817;DHT22;6979;52.116;5.286;2023-03-14T05:27:17;13.80;99.90
13817;DHT22;6979;52.116;5.286;2023-03-14T05:30:08;13.70;99.90
13817;DHT22;6979;52.116;5.286;2023-03-14T05:32:51;13.70;99.90
13817;DHT22;6979;52.116;5.286;2023-03-14T05:35:29;13.60;99.90
13817;DHT22;6979;52.116;5.286;2023-03-14T05:38:25;13.60;99.90
13817;DHT22;6979;52.116;5.286;2023-03-14T05:41:11;13.50;99.90
13817;DHT22;6979;52.116;5.286;2023-03-14T05:43:57;13.50;99.90
13817;DHT22;6979;52.116;5.286;2023-03-14T05:46:35;13.50;99.90
13817;DHT22;6979;52.116;5.286;2023-03-14T05:49:22;13.50;99.90
13817;DHT22;6979;52.116;5.286;2023-03-14T05:51:58;13.40;99.90
13817;DHT22;6979;52.116;5.286;2023-03-14T05:54:25;13.40;99.90
13817;DHT22;6979;52.116;5.286;2023-03-14T05:57:05;13.30;99.90
13817;DHT22;6979;52.116;5.286;2023-03-14T05:59:59;13.30;99.90
13817;DHT22;6979;52.116;5.286;2023-03-14T06:02:38;13.30;99.90
13817;DHT22;6979;52.116;5.286;2023-03-14T06:05:15;13.30;99.90
13817;DHT22;6979;52.116;5.286;2023-03-14T06:07:42;13.30;99.90
13817;DHT22;6979;52.116;5.286;2023-03-14T06:10:10;13.20;99.90
13817;DHT22;6979;52.116;5.286;2023-03-14T06:12:38;13.20;99.90
13817;DHT22;6979;52.116;5.286;2023-03-14T06:15:07;13.20;99.90
13817;DHT22;6979;52.116;5.286;2023-03-14T06:17:34;13.20;99.90
13817;DHT22;6979;52.116;5.286;2023-03-14T06:20:06;13.20;99.90
13817;DHT22;6979;52.116;5.286;2023-03-14T06:22:33;13.20;99.90
13817;DHT22;6979;52.116;5.286;2023-03-14T06:25:01;13.20;99.90
13817;DHT22;6979;52.116;5.286;2023-03-14T06:27:29;13.20;99.90
13817;DHT22;6979;52.116;5.286;2023-03-14T06:29:57;13.20;99.90
13817;DHT22;6979;52.116;5.286;2023-03-14T06:32:26;13.20;99.90
13817;DHT22;6979;52.116;5.286;2023-03-14T06:34:57;13.30;99.90
13817;DHT22;6979;52.116;5.286;2023-03-14T06:37:27;13.30;99.90
13817;DHT22;6979;52.116;5.286;2023-03-14T06:39:54;13.20;99.90
13817;DHT22;6979;52.116;5.286;2023-03-14T06:42:41;13.20;99.90
13817;DHT22;6979;52.116;5.286;2023-03-14T06:45:09;13.20;99.90
13817;DHT22;6979;52.116;5.286;2023-03-14T06:47:37;13.20;99.90
13817;DHT22;6979;52.116;5.286;2023-03-14T06:50:05;13.10;99.90
13817;DHT22;6979;52.116;5.286;2023-03-14T06:52:33;13.10;99.90
13817;DHT22;6979;52.116;5.286;2023-03-14T06:55:01;13.00;99.90
13817;DHT22;6979;52.116;5.286;2023-03-14T06:57:29;13.00;99.90
13817;DHT22;6979;52.116;5.286;2023-03-14T06:59:56;12.90;99.90
13817;DHT22;6979;52.116;5.286;2023-03-14T07:02:23;12.80;99.90
13817;DHT22;6979;52.116;5.286;2023-03-14T07:04:54;12.80;99.90
13817;DHT22;6979;52.116;5.286;2023-03-14T07:07:21;12.80;99.90
13817;DHT22;6979;52.116;5.286;2023-03-14T07:09:48;12.70;99.90
13817;DHT22;6979;52.116;5.286;2023-03-14T07:12:14;12.70;99.90
13817;DHT22;6979;52.116;5.286;2023-03-14T07:14:43;12.60;99.90
13817;DHT22;6979;52.116;5.286;2023-03-14T07:17:10;12.60;99.90
13817;DHT22;6979;52.116;5.286;2023-03-14T07:19:39;12.60;99.90
13817;DHT22;6979;52.116;5.286;2023-03-14T07:22:09;12.50;99.90
13817;DHT22;6979;52.116;5.286;2023-03-14T07:24:37;12.50;99.90
13817;DHT22;6979;52.116;5.286;2023-03-14T07:27:04;12.50;99.90
13817;DHT22;6979;52.116;5.286;2023-03-14T07:29:32;12.50;99.90
13817;DHT22;6979;52.116;5.286;2023-03-14T07:32:04;12.40;99.90
13817;DHT22;6979;52.116;5.286;2023-03-14T07:34:31;12.40;99.90
13817;DHT22;6979;52.116;5.286;2023-03-14T07:36:58;12.40;99.90
13817;DHT22;6979;52.116;5.286;2023-03-14T07:39:31;12.40;99.90
13817;DHT22;6979;52.116;5.286;2023-03-14T07:42:02;12.30;99.90
13817;DHT22;6979;52.116;5.286;2023-03-14T07:44:53;12.30;99.90
13817;DHT22;6979;52.116;5.286;2023-03-14T07:47:20;12.30;99.90
13817;DHT22;6979;52.116;5.286;2023-03-14T07:49:46;12.20;99.90
13817;DHT22;6979;52.116;5.286;2023-03-14T07:52:13;12.20;99.90
13817;DHT22;6979;52.116;5.286;2023-03-14T07:54:42;12.10;99.90
13817;DHT22;6979;52.116;5.286;2023-03-14T07:57:08;12.10;99.90
13817;DHT22;6979;52.116;5.286;2023-03-14T07:59:35;12.10;99.90
13817;DHT22;6979;52.116;5.286;2023-03-14T08:02:02;12.00;99.90
13817;DHT22;6979;52.116;5.286;2023-03-14T08:04:31;12.00;99.90
13817;DHT22;6979;52.116;5.286;2023-03-14T08:06:59;12.00;99.90
13817;DHT22;6979;52.116;5.286;2023-03-14T08:09:26;11.90;99.90
13817;DHT22;6979;52.116;5.286;2023-03-14T08:11:54;11.90;99.90
13817;DHT22;6979;52.116;5.286;2023-03-14T08:14:21;11.80;99.90
13817;DHT22;6979;52.116;5.286;2023-03-14T08:16:49;11.80;99.90
13817;DHT22;6979;52.116;5.286;2023-03-14T08:19:16;11.70;99.90
13817;DHT22;6979;52.116;5.286;2023-03-14T08:21:44;11.60;99.90
13817;DHT22;6979;52.116;5.286;2023-03-14T08:24:11;11.50;99.90
13817;DHT22;6979;52.116;5.286;2023-03-14T08:26:38;11.40;99.90
13817;DHT22;6979;52.116;5.286;2023-03-14T08:29:06;11.30;99.90
13817;DHT22;6979;52.116;5.286;2023-03-14T08:31:34;11.30;99.90
13817;DHT22;6979;52.116;5.286;2023-03-14T08:34:02;11.20;99.90
13817;DHT22;6979;52.116;5.286;2023-03-14T08:36:29;11.10;99.90
13817;DHT22;6979;52.116;5.286;2023-03-14T08:38:56;11.00;99.90
13817;DHT22;6979;52.116;5.286;2023-03-14T08:41:23;11.00;99.90
13817;DHT22;6979;52.116;5.286;2023-03-14T08:43:50;10.90;99.90
13817;DHT22;6979;52.116;5.286;2023-03-14T08:46:18;10.90;99.90
13817;DHT22;6979;52.116;5.286;2023-03-14T08:48:45;10.80;99.90
13817;DHT22;6979;52.116;5.286;2023-03-14T08:51:14;10.80;99.90
13817;DHT22;6979;52.116;5.286;2023-03-14T08:53:41;10.90;99.90
13817;DHT22;6979;52.116;5.286;2023-03-14T08:56:09;10.90;99.90
13817;DHT22;6979;52.116;5.286;2023-03-14T08:58:36;10.90;99.90
13817;DHT22;6979;52.116;5.286;2023-03-14T09:01:04;10.90;99.90
13817;DHT22;6979;52.116;5.286;2023-03-14T09:03:32;11.00;99.90
13817;DHT22;6979;52.116;5.286;2023-03-14T09:06:02;11.10;99.90
13817;DHT22;6979;52.116;5.286;2023-03-14T09:08:30;11.10;99.90
13817;DHT22;6979;52.116;5.286;2023-03-14T09:10:57;11.20;99.90
13817;DHT22;6979;52.116;5.286;2023-03-14T09:13:24;11.20;99.90
13817;DHT22;6979;52.116;5.286;2023-03-14T09:15:51;11.30;99.90
13817;DHT22;6979;52.116;5.286;2023-03-14T09:18:18;11.30;99.90
13817;DHT22;6979;52.116;5.286;2023-03-14T09:20:47;11.30;99.90
13817;DHT22;6979;52.116;5.286;2023-03-14T09:23:14;11.40;99.90
13817;DHT22;6979;52.116;5.286;2023-03-14T09:25:41;11.30;99.90
13817;DHT22;6979;52.116;5.286;2023-03-14T09:28:08;11.30;99.90
13817;DHT22;6979;52.116;5.286;2023-03-14T09:30:35;11.30;99.90
13817;DHT22;6979;52.116;5.286;2023-03-14T09:33:01;11.30;99.90
13817;DHT22;6979;52.116;5.286;2023-03-14T09:35:29;11.30;99.90
13817;DHT22;6979;52.116;5.286;2023-03-14T09:37:57;11.30;99.90
13817;DHT22;6979;52.116;5.286;2023-03-14T09:40:24;11.30;99.90
13817;DHT22;6979;52.116;5.286;2023-03-14T09:42:57;11.20;99.90
13817;DHT22;6979;52.116;5.286;2023-03-14T09:45:27;11.20;99.90
13817;DHT22;6979;52.116;5.286;2023-03-14T09:47:56;11.20;99.90
13817;DHT22;6979;52.116;5.286;2023-03-14T09:50:24;11.20;99.90
13817;DHT22;6979;52.116;5.286;2023-03-14T09:52:59;11.30;99.90
13817;DHT22;6979;52.116;5.286;2023-03-14T09:55:28;11.30;99.90
13817;DHT22;6979;52.116;5.286;2023-03-14T09:57:58;11.30;99.90
13817;DHT22;6979;52.116;5.286;2023-03-14T10:00:28;11.30;99.90
13817;DHT22;6979;52.116;5.286;2023-03-14T10:02:58;11.30;99.90
13817;DHT22;6979;52.116;5.286;2023-03-14T10:05:27;11.30;99.90
13817;DHT22;6979;52.116;5.286;2023-03-14T10:07:56;11.40;99.90
13817;DHT22;6979;52.116;5.286;2023-03-14T10:10:25;11.40;99.90
13817;DHT22;6979;52.116;5.286;2023-03-14T10:12:56;11.40;99.90
13817;DHT22;6979;52.116;5.286;2023-03-14T10:15:25;11.40;99.90
13817;DHT22;6979;52.116;5.286;2023-03-14T10:17:52;11.40;99.90
13817;DHT22;6979;52.116;5.286;2023-03-14T10:20:31;11.40;99.90
13817;DHT22;6979;52.116;5.286;2023-03-14T10:23:04;11.30;99.90
13817;DHT22;6979;52.116;5.286;2023-03-14T10:25:37;11.30;99.90
13817;DHT22;6979;52.116;5.286;2023-03-14T10:28:04;11.20;99.90
13817;DHT22;6979;52.116;5.286;2023-03-14T10:30:39;11.10;99.90
13817;DHT22;6979;52.116;5.286;2023-03-14T10:33:11;11.00;99.90
13817;DHT22;6979;52.116;5.286;2023-03-14T10:35:38;11.00;99.90
13817;DHT22;6979;52.116;5.286;2023-03-14T10:38:12;11.00;99.90
13817;DHT22;6979;52.116;5.286;2023-03-14T10:40:40;11.00;99.90
13817;DHT22;6979;52.116;5.286;2023-03-14T10:43:14;11.10;99.90
13817;DHT22;6979;52.116;5.286;2023-03-14T10:45:43;11.10;99.90
13817;DHT22;6979;52.116;5.286;2023-03-14T10:48:22;11.20;99.90
13817;DHT22;6979;52.116;5.286;2023-03-14T10:50:54;11.30;99.90
13817;DHT22;6979;52.116;5.286;2023-03-14T10:53:23;11.30;99.90
13817;DHT22;6979;52.116;5.286;2023-03-14T10:55:51;11.30;99.90
13817;DHT22;6979;52.116;5.286;2023-03-14T10:58:23;11.40;99.90
13817;DHT22;6979;52.116;5.286;2023-03-14T11:00:54;11.40;99.90
13817;DHT22;6979;52.116;5.286;2023-03-14T11:03:26;11.50;99.90
13817;DHT22;6979;52.116;5.286;2023-03-14T11:05:57;11.60;99.90
13817;DHT22;6979;52.116;5.286;2023-03-14T11:08:31;11.60;99.90
13817;DHT22;6979;52.116;5.286;2023-03-14T11:11:07;11.60;99.90
13817;DHT22;6979;52.116;5.286;2023-03-14T11:13:40;11.60;99.90
13817;DHT22;6979;52.116;5.286;2023-03-14T11:16:16;11.70;99.90
13817;DHT22;6979;52.116;5.286;2023-03-14T11:18:54;11.70;99.90
13817;DHT22;6979;52.116;5.286;2023-03-14T11:21:29;11.80;99.90
13817;DHT22;6979;52.116;5.286;2023-03-14T11:24:21;12.00;99.90
13817;DHT22;6979;52.116;5.286;2023-03-14T11:26:51;12.40;99.90
13817;DHT22;6979;52.116;5.286;2023-03-14T11:29:22;12.80;99.90
13817;DHT22;6979;52.116;5.286;2023-03-14T11:31:55;13.30;99.90
13817;DHT22;6979;52.116;5.286;2023-03-14T11:34:28;13.70;99.90
13817;DHT22;6979;52.116;5.286;2023-03-14T11:37:00;13.90;99.90
13817;DHT22;6979;52.116;5.286;2023-03-14T11:39:39;14.10;99.90
13817;DHT22;6979;52.116;5.286;2023-03-14T11:42:11;14.10;99.90
13817;DHT22;6979;52.116;5.286;2023-03-14T11:44:39;14.10;99.90
13817;DHT22;6979;52.116;5.286;2023-03-14T11:47:10;14.20;99.90
13817;DHT22;6979;52.116;5.286;2023-03-14T11:49:42;14.20;99.90
13817;DHT22;6979;52.116;5.286;2023-03-14T11:52:13;14.20;99.90
13817;DHT22;6979;52.116;5.286;2023-03-14T11:54:47;14.20;99.90
13817;DHT22;6979;52.116;5.286;2023-03-14T11:57:18;14.30;99.90
13817;DHT22;6979;52.116;5.286;2023-03-14T11:59:50;14.40;99.90
13817;DHT22;6979;52.116;5.286;2023-03-14T12:02:23;14.50;99.90
13817;DHT22;6979;52.116;5.286;2023-03-14T12:05:14;14.70;99.90
13817;DHT22;6979;52.116;5.286;2023-03-14T12:07:55;14.90;99.90
13817;DHT22;6979;52.116;5.286;2023-03-14T12:10:26;15.10;99.90
13817;DHT22;6979;52.116;5.286;2023-03-14T12:12:54;15.20;99.90
13817;DHT22;6979;52.116;5.286;2023-03-14T12:15:22;15.30;99.90
13817;DHT22;6979;52.116;5.286;2023-03-14T12:17:53;15.40;99.90
13817;DHT22;6979;52.116;5.286;2023-03-14T12:20:23;15.40;99.90
13817;DHT22;6979;52.116;5.286;2023-03-14T12:22:52;15.40;99.90
13817;DHT22;6979;52.116;5.286;2023-03-14T12:25:21;15.40;99.90
13817;DHT22;6979;52.116;5.286;2023-03-14T12:28:21;15.40;99.90
13817;DHT22;6979;52.116;5.286;2023-03-14T12:30:48;15.40;99.90
13817;DHT22;6979;52.116;5.286;2023-03-14T12:33:29;15.50;99.90
13817;DHT22;6979;52.116;5.286;2023-03-14T12:36:04;15.50;99.90
13817;DHT22;6979;52.116;5.286;2023-03-14T12:38:45;15.50;99.90
13817;DHT22;6979;52.116;5.286;2023-03-14T12:41:17;15.60;99.90
13817;DHT22;6979;52.116;5.286;2023-03-14T12:43:47;15.70;99.90
13817;DHT22;6979;52.116;5.286;2023-03-14T12:46:20;15.80;99.90
13817;DHT22;6979;52.116;5.286;2023-03-14T12:48:48;15.80;99.90
13817;DHT22;6979;52.116;5.286;2023-03-14T12:51:17;15.80;99.90
13817;DHT22;6979;52.116;5.286;2023-03-14T12:53:56;15.80;99.90
13817;DHT22;6979;52.116;5.286;2023-03-14T12:59:48;15.80;99.90
13817;DHT22;6979;52.116;5.286;2023-03-14T13:02:25;15.70;99.90
13817;DHT22;6979;52.116;5.286;2023-03-14T13:05:01;15.60;99.90
13817;DHT22;6979;52.116;5.286;2023-03-14T13:07:36;15.50;99.90
13817;DHT22;6979;52.116;5.286;2023-03-14T13:10:24;15.50;99.90
13817;DHT22;6979;52.116;5.286;2023-03-14T13:12:55;15.40;99.90
13817;DHT22;6979;52.116;5.286;2023-03-14T13:15:29;15.40;99.90
13817;DHT22;6979;52.116;5.286;2023-03-14T13:18:01;15.40;99.90
13817;DHT22;6979;52.116;5.286;2023-03-14T13:20:31;15.50;99.90
13817;DHT22;6979;52.116;5.286;2023-03-14T13:22:59;15.50;99.90
13817;DHT22;6979;52.116;5.286;2023-03-14T13:25:35;15.60;99.90
13817;DHT22;6979;52.116;5.286;2023-03-14T13:28:02;15.80;99.90
13817;DHT22;6979;52.116;5.286;2023-03-14T13:30:39;16.00;99.90
13817;DHT22;6979;52.116;5.286;2023-03-14T13:33:12;16.20;99.90
13817;DHT22;6979;52.116;5.286;2023-03-14T13:35:42;16.30;99.90
13817;DHT22;6979;52.116;5.286;2023-03-14T13:38:16;16.50;99.90
13817;DHT22;6979;52.116;5.286;2023-03-14T13:40:45;16.70;99.90
13817;DHT22;6979;52.116;5.286;2023-03-14T13:43:18;16.80;99.90
13817;DHT22;6979;52.116;5.286;2023-03-14T13:45:50;16.90;99.90
13817;DHT22;6979;52.116;5.286;2023-03-14T13:48:18;16.90;99.90
13817;DHT22;6979;52.116;5.286;2023-03-14T13:50:58;16.80;99.90
13817;DHT22;6979;52.116;5.286;2023-03-14T13:53:25;16.70;99.90
13817;DHT22;6979;52.116;5.286;2023-03-14T13:55:53;16.70;99.90
13817;DHT22;6979;52.116;5.286;2023-03-14T13:58:31;16.70;99.90
13817;DHT22;6979;52.116;5.286;2023-03-14T14:01:06;16.70;99.90
13817;DHT22;6979;52.116;5.286;2023-03-14T14:03:39;16.70;99.90
13817;DHT22;6979;52.116;5.286;2023-03-14T14:06:16;16.80;99.90
13817;DHT22;6979;52.116;5.286;2023-03-14T14:08:46;16.90;99.90
13817;DHT22;6979;52.116;5.286;2023-03-14T14:11:21;16.90;99.90
13817;DHT22;6979;52.116;5.286;2023-03-14T14:13:49;16.90;99.90
13817;DHT22;6979;52.116;5.286;2023-03-14T14:16:20;17.00;99.90
13817;DHT22;6979;52.116;5.286;2023-03-14T14:18:48;16.90;99.90
13817;DHT22;6979;52.116;5.286;2023-03-14T14:21:15;16.80;99.90
13817;DHT22;6979;52.116;5.286;2023-03-14T14:23:42;16.70;99.90
13817;DHT22;6979;52.116;5.286;2023-03-14T14:26:18;16.60;99.90
13817;DHT22;6979;52.116;5.286;2023-03-14T14:28:57;16.30;98.40
13817;DHT22;6979;52.116;5.286;2023-03-14T14:31:25;16.10;99.80
13817;DHT22;6979;52.116;5.286;2023-03-14T14:33:55;15.90;99.30
13817;DHT22;6979;52.116;5.286;2023-03-14T14:36:25;15.70;98.00
13817;DHT22;6979;52.116;5.286;2023-03-14T14:38:57;15.50;98.50
13817;DHT22;6979;52.116;5.286;2023-03-14T14:41:29;15.30;98.50
13817;DHT22;6979;52.116;5.286;2023-03-14T14:43:58;15.00;97.80
13817;DHT22;6979;52.116;5.286;2023-03-14T14:46:28;14.80;98.70
13817;DHT22;6979;52.116;5.286;2023-03-14T14:48:57;14.60;98.70
13817;DHT22;6979;52.116;5.286;2023-03-14T14:51:30;14.50;98.00
13817;DHT22;6979;52.116;5.286;2023-03-14T14:54:11;14.30;96.50
13817;DHT22;6979;52.116;5.286;2023-03-14T14:56:44;14.10;96.60
13817;DHT22;6979;52.116;5.286;2023-03-14T14:59:24;13.90;97.80
13817;DHT22;6979;52.116;5.286;2023-03-14T15:01:56;13.80;98.00
13817;DHT22;6979;52.116;5.286;2023-03-14T15:04:27;13.60;98.30
13817;DHT22;6979;52.116;5.286;2023-03-14T15:06:56;13.50;98.90
13817;DHT22;6979;52.116;5.286;2023-03-14T15:09:23;13.40;99.00
13817;DHT22;6979;52.116;5.286;2023-03-14T15:11:51;13.30;99.20
13817;DHT22;6979;52.116;5.286;2023-03-14T15:14:20;13.20;98.00
13817;DHT22;6979;52.116;5.286;2023-03-14T15:16:47;13.10;97.90
13817;DHT22;6979;52.116;5.286;2023-03-14T15:19:20;13.00;97.80
13817;DHT22;6979;52.116;5.286;2023-03-14T15:21:49;12.90;98.10
13817;DHT22;6979;52.116;5.286;2023-03-14T15:24:16;12.80;98.90
13817;DHT22;6979;52.116;5.286;2023-03-14T15:26:43;12.80;99.50
13817;DHT22;6979;52.116;5.286;2023-03-14T15:29:13;12.70;99.90
13817;DHT22;6979;52.116;5.286;2023-03-14T15:31:40;12.70;99.40
13817;DHT22;6979;52.116;5.286;2023-03-14T15:34:08;12.70;99.90
13817;DHT22;6979;52.116;5.286;2023-03-14T15:36:36;12.70;99.90
13817;DHT22;6979;52.116;5.286;2023-03-14T15:39:04;12.70;99.90
13817;DHT22;6979;52.116;5.286;2023-03-14T15:41:32;12.70;99.90
13817;DHT22;6979;52.116;5.286;2023-03-14T15:43:58;12.70;99.90
13817;DHT22;6979;52.116;5.286;2023-03-14T15:46:27;12.80;99.50
13817;DHT22;6979;52.116;5.286;2023-03-14T15:48:54;12.70;99.60
13817;DHT22;6979;52.116;5.286;2023-03-14T15:51:23;12.80;99.10
13817;DHT22;6979;52.116;5.286;2023-03-14T15:53:50;12.70;99.20
13817;DHT22;6979;52.116;5.286;2023-03-14T15:56:18;12.70;99.70
13817;DHT22;6979;52.116;5.286;2023-03-14T15:58:46;12.70;99.20
13817;DHT22;6979;52.116;5.286;2023-03-14T16:01:13;12.70;99.50
13817;DHT22;6979;52.116;5.286;2023-03-14T16:03:43;12.60;99.40
13817;DHT22;6979;52.116;5.286;2023-03-14T16:06:10;12.60;98.90
13817;DHT22;6979;52.116;5.286;2023-03-14T16:08:37;12.60;99.70
13817;DHT22;6979;52.116;5.286;2023-03-14T16:11:08;12.50;98.30